San Antonio Oeste, Argentina
Current Conditions -  °F | °C
As of 10:00 PM on Monday 20 Oct 2014 (Local Time) from SAZN Reporting Station
Clear Clear  
Wind Chill: 72°   Ceiling: Unl
Heat Index: 72°   Visibility: 6mi
Dew Point: 45°   Wind: 2mph
Humidity: 38%   Direction: 200°SSW
Pressure: 29.91"   Gusts: NA
Location:  40.74°S, 64.95°W
Report Text: SAZN 210100Z 20002KT CAVOK 22/07 Q1013
Loading
Personal Weather Stations






























Interactive Weather Map
Tropical Storm Tracking
New forecast layout! Learn more

10-Day Weather Forecast

Advertisements
Track Severe Weather on mobile